createdAt,value
2023-04-15T00:00:35.687Z,78.3358
2023-04-15T00:01:36.756Z,78.0535
2023-04-15T00:02:37.890Z,77.6305
2023-04-15T00:03:39.123Z,77.7486
2023-04-15T00:04:39.857Z,77.8126
2023-04-15T00:05:40.935Z,78.0648
2023-04-15T00:06:41.934Z,78.0500
2023-04-15T00:07:43.720Z,77.8704
2023-04-15T00:08:43.875Z,77.5832
2023-04-15T00:09:44.952Z,77.6887
2023-04-15T00:10:46.017Z,77.9633
2023-04-15T00:11:47.029Z,77.5918
2023-04-15T00:12:48.059Z,77.7407
2023-04-15T00:13:49.104Z,78.9839
2023-04-15T00:14:50.185Z,79.4487
2023-04-15T00:15:51.240Z,80.3584
2023-04-15T00:16:52.340Z,80.3875
2023-04-15T00:17:53.286Z,80.7692
2023-04-15T00:18:54.343Z,80.9057
2023-04-15T00:19:55.358Z,80.5395
2023-04-15T00:20:56.464Z,81.3843
2023-04-15T00:21:57.453Z,79.3900
2023-04-15T00:22:58.506Z,78.7682
2023-04-15T00:23:59.533Z,78.7569
2023-04-15T00:25:00.577Z,78.4477
2023-04-15T00:26:01.667Z,80.1048
2023-04-15T00:27:02.698Z,80.7316
2023-04-15T00:28:03.700Z,79.5801
2023-04-15T00:29:04.749Z,79.0677
2023-04-15T00:30:05.783Z,77.6721
2023-04-15T00:31:06.884Z,77.5157
2023-04-15T00:32:07.900Z,78.6107
2023-04-15T00:33:08.923Z,78.3386
2023-04-15T00:34:09.988Z,78.5838
2023-04-15T00:35:11.048Z,78.0986
2023-04-15T00:36:12.071Z,79.1628
2023-04-15T00:37:13.081Z,80.2240
2023-04-15T00:38:14.157Z,79.2131
2023-04-15T00:39:15.239Z,79.3075
2023-04-15T00:40:16.230Z,78.8543
2023-04-15T00:41:17.326Z,78.6076
2023-04-15T00:42:18.364Z,77.9736
2023-04-15T00:43:19.365Z,78.7166
2023-04-15T00:44:20.399Z,79.9668
2023-04-15T00:45:21.434Z,79.9953
2023-04-15T00:46:22.542Z,80.0944
2023-04-15T00:47:23.621Z,80.2494
2023-04-15T00:48:24.568Z,80.2662
2023-04-15T00:49:25.624Z,80.2866
2023-04-15T00:50:26.693Z,78.9444
2023-04-15T00:51:27.708Z,78.8191
2023-04-15T00:52:28.825Z,78.7702
2023-04-15T00:53:29.834Z,79.2774
2023-04-15T00:54:30.843Z,78.9045
2023-04-15T00:55:31.925Z,78.9972
2023-04-15T00:56:32.987Z,79.3507
2023-04-15T00:57:34.111Z,79.3304
2023-04-15T00:58:35.143Z,77.5017
2023-04-15T00:59:36.195Z,76.1685
2023-04-15T01:00:37.230Z,76.8832
2023-04-15T01:01:38.322Z,78.2518
2023-04-15T01:02:39.598Z,78.6004
2023-04-15T01:03:40.467Z,77.2739
2023-04-15T01:04:41.393Z,76.4513
2023-04-15T01:05:42.442Z,76.1744
2023-04-15T01:06:43.534Z,75.9101
2023-04-15T01:07:44.596Z,77.5168
2023-04-15T01:08:45.626Z,78.5235
2023-04-15T01:09:46.594Z,78.2418
2023-04-15T01:10:47.666Z,78.0552
2023-04-15T01:11:48.724Z,78.6758
2023-04-15T01:12:49.733Z,78.3217
2023-04-15T01:13:50.828Z,75.4317
2023-04-15T01:14:51.833Z,75.0143
2023-04-15T01:15:52.845Z,75.6998
2023-04-15T01:16:53.860Z,76.9997
2023-04-15T01:17:55.029Z,77.5070
2023-04-15T01:18:55.947Z,77.5602
2023-04-15T01:19:57.015Z,77.8746
2023-04-15T01:20:58.031Z,78.8970
2023-04-15T01:21:59.072Z,79.0368
2023-04-15T01:23:00.263Z,79.1703
2023-04-15T01:24:01.170Z,79.1524
2023-04-15T01:25:02.202Z,79.0306
2023-04-15T01:26:03.272Z,79.2692
2023-04-15T01:27:04.278Z,79.3335
2023-04-15T01:28:05.383Z,79.0617
2023-04-15T01:29:06.344Z,78.0598
2023-04-15T01:30:07.453Z,76.6690
2023-04-15T01:31:08.518Z,76.1293
2023-04-15T01:32:09.472Z,76.5363
2023-04-15T01:33:10.531Z,76.0579
2023-04-15T01:34:11.555Z,76.5171
2023-04-15T01:35:12.608Z,75.7436
2023-04-15T01:36:13.613Z,74.9225
2023-04-15T01:37:14.650Z,74.6133
2023-04-15T01:38:15.730Z,74.6117
2023-04-15T01:39:16.829Z,75.1096
2023-04-15T01:40:17.778Z,76.5552
2023-04-15T01:41:18.833Z,76.5586
2023-04-15T01:42:19.850Z,76.5130
2023-04-15T01:43:20.926Z,76.6625
2023-04-15T01:44:21.932Z,76.2930
2023-04-15T01:45:22.951Z,76.5876
2023-04-15T01:46:24.021Z,76.2774
2023-04-15T01:47:25.072Z,76.8332
2023-04-15T01:48:26.145Z,74.9759
2023-04-15T01:49:27.127Z,74.7604
2023-04-15T01:50:28.090Z,75.0031
2023-04-15T01:51:29.144Z,75.1765
2023-04-15T01:52:30.171Z,74.6522
2023-04-15T01:53:31.226Z,75.0576
2023-04-15T01:54:32.262Z,75.8625
2023-04-15T01:55:33.318Z,76.0706
2023-04-15T01:56:34.351Z,76.3660
2023-04-15T01:57:35.372Z,76.8561
2023-04-15T01:58:36.472Z,76.9326
2023-04-15T01:59:37.473Z,76.9787
2023-04-15T02:00:38.539Z,77.3453
2023-04-15T02:01:39.573Z,77.7847
2023-04-15T02:02:40.746Z,77.8941
2023-04-15T02:03:41.781Z,78.2187
2023-04-15T02:04:42.685Z,78.4491
2023-04-15T02:05:43.702Z,78.1789
2023-04-15T02:06:44.731Z,77.8559
2023-04-15T02:07:45.769Z,76.9861
2023-04-15T02:08:46.869Z,77.4713
2023-04-15T02:09:47.876Z,77.7122
2023-04-15T02:10:48.915Z,77.8779
2023-04-15T02:11:49.977Z,78.1062
2023-04-15T02:12:51.014Z,78.7019
2023-04-15T02:13:52.096Z,78.6930
2023-04-15T02:14:53.102Z,78.8515
2023-04-15T02:15:54.140Z,79.5830
2023-04-15T02:16:55.242Z,78.5915
2023-04-15T02:17:56.228Z,78.3112
2023-04-15T02:18:57.283Z,79.1049
2023-04-15T02:19:58.280Z,78.9029
2023-04-15T02:20:59.393Z,79.0154
2023-04-15T02:22:00.372Z,80.0232
2023-04-15T02:23:01.424Z,80.2528
2023-04-15T02:24:02.500Z,80.2565
2023-04-15T02:25:03.531Z,80.1681
2023-04-15T02:26:04.539Z,79.2929
2023-04-15T02:27:05.556Z,77.7507
2023-04-15T02:28:06.622Z,77.2077
2023-04-15T02:29:07.661Z,77.2893
2023-04-15T02:30:08.683Z,76.7544
2023-04-15T02:31:09.775Z,76.4885
2023-04-15T02:32:10.914Z,76.5186
2023-04-15T02:33:11.838Z,77.2101
2023-04-15T02:34:12.898Z,76.4222
2023-04-15T02:35:13.996Z,76.0025
2023-04-15T02:36:14.961Z,75.6837
2023-04-15T02:37:16.017Z,75.7842
2023-04-15T02:38:17.089Z,75.6351
2023-04-15T02:39:18.085Z,75.5951
2023-04-15T02:40:19.239Z,75.7215
2023-04-15T02:41:20.321Z,75.5997
2023-04-15T02:42:21.314Z,74.3958
2023-04-15T02:43:22.356Z,74.7132
2023-04-15T02:44:23.378Z,74.9408
2023-04-15T02:45:24.505Z,74.1889
2023-04-15T02:46:25.588Z,73.4985
2023-04-15T02:47:26.593Z,73.4075
2023-04-15T02:48:27.557Z,73.3993
2023-04-15T02:49:28.752Z,73.1289
2023-04-15T02:50:30.071Z,72.8193
2023-04-15T02:51:30.870Z,72.6558
2023-04-15T02:52:31.754Z,72.5734
2023-04-15T02:53:32.831Z,73.8864
2023-04-15T02:54:33.840Z,73.8997
2023-04-15T02:55:34.916Z,74.5603
2023-04-15T02:56:35.912Z,74.9828
2023-04-15T02:57:36.989Z,75.2287
2023-04-15T02:58:37.995Z,75.0200
2023-04-15T02:59:39.037Z,75.0984
2023-04-15T03:00:40.151Z,74.7932
2023-04-15T03:01:41.088Z,75.0899
2023-04-15T03:02:42.461Z,75.3881
2023-04-15T03:03:43.380Z,75.9888
2023-04-15T03:04:44.350Z,75.4718
2023-04-15T03:05:45.410Z,75.6248
2023-04-15T03:06:46.369Z,75.4136
2023-04-15T03:07:47.424Z,75.0787
2023-04-15T03:08:48.549Z,75.1985
2023-04-15T03:09:49.515Z,75.7342
2023-04-15T03:10:50.572Z,75.5663
2023-04-15T03:11:51.573Z,75.9025
2023-04-15T03:12:52.619Z,76.3085
2023-04-15T03:13:53.689Z,75.9294
2023-04-15T03:14:54.718Z,75.4185
2023-04-15T03:15:55.887Z,75.5067
2023-04-15T03:16:56.830Z,75.9041
2023-04-15T03:17:57.930Z,75.6396
2023-04-15T03:18:59.020Z,75.5578
2023-04-15T03:19:59.964Z,75.5752
2023-04-15T03:21:01.027Z,75.2913
2023-04-15T03:22:02.016Z,75.9391
2023-04-15T03:23:03.058Z,76.0489
2023-04-15T03:24:04.200Z,76.0161
2023-04-15T03:25:05.145Z,76.9450
2023-04-15T03:26:06.238Z,75.7062
2023-04-15T03:27:07.294Z,75.5663
2023-04-15T03:28:08.276Z,75.3568
2023-04-15T03:29:09.318Z,75.5288
2023-04-15T03:30:10.334Z,75.9849
2023-04-15T03:31:11.458Z,75.4460
2023-04-15T03:32:12.508Z,75.3388
2023-04-15T03:33:13.400Z,76.1644
2023-04-15T03:34:14.441Z,76.7150
2023-04-15T03:35:15.491Z,75.8924
2023-04-15T03:36:16.569Z,75.5552
2023-04-15T03:37:17.574Z,75.1726
2023-04-15T03:38:18.597Z,75.4696
2023-04-15T03:39:19.651Z,76.0518
2023-04-15T03:40:20.685Z,75.5680
2023-04-15T03:41:21.756Z,75.4216
2023-04-15T03:42:22.766Z,74.9547
2023-04-15T03:43:23.778Z,74.7091
2023-04-15T03:44:24.854Z,74.8278
2023-04-15T03:45:25.855Z,74.3599
2023-04-15T03:46:26.962Z,74.7839
2023-04-15T03:47:27.971Z,75.8407
2023-04-15T03:48:29.005Z,75.8149
2023-04-15T03:49:30.025Z,75.6007
2023-04-15T03:50:31.054Z,75.6371
2023-04-15T03:51:32.126Z,75.8965
2023-04-15T03:52:33.151Z,76.0222
2023-04-15T03:53:34.187Z,76.4364
2023-04-15T03:54:35.238Z,75.8326
2023-04-15T03:55:36.297Z,75.8211
2023-04-15T03:56:37.379Z,76.3485
2023-04-15T03:57:38.390Z,75.9965
2023-04-15T03:58:39.433Z,76.0722
2023-04-15T03:59:40.476Z,75.8929
2023-04-15T04:00:41.575Z,76.0577
2023-04-15T04:01:42.688Z,76.2075
2023-04-15T04:02:43.726Z,75.2749
2023-04-15T04:03:44.813Z,75.3499
2023-04-15T04:04:45.714Z,76.4415
2023-04-15T04:05:46.754Z,76.2876
2023-04-15T04:06:47.828Z,75.6335
2023-04-15T04:07:48.821Z,76.3675
2023-04-15T04:08:49.873Z,76.9448
2023-04-15T04:09:50.934Z,75.5502
2023-04-15T04:10:51.953Z,76.0365
2023-04-15T04:11:53.033Z,76.3983
2023-04-15T04:12:54.039Z,75.8357
2023-04-15T04:13:55.133Z,76.6877
2023-04-15T04:14:56.170Z,76.4881
2023-04-15T04:15:57.334Z,76.2790
2023-04-15T04:16:58.335Z,76.0378
2023-04-15T04:17:59.326Z,76.4256
2023-04-15T04:19:00.612Z,76.5423
2023-04-15T04:20:01.381Z,76.6945
2023-04-15T04:21:02.390Z,76.2642
2023-04-15T04:22:03.516Z,75.7156
2023-04-15T04:23:04.467Z,75.7573
2023-04-15T04:24:05.672Z,75.8114
2023-04-15T04:25:06.705Z,75.3317
2023-04-15T04:26:07.772Z,76.3539
2023-04-15T04:27:08.829Z,76.3023
2023-04-15T04:28:09.837Z,76.2043
2023-04-15T04:29:10.869Z,75.9682
2023-04-15T04:30:11.933Z,75.3501
2023-04-15T04:31:13.054Z,75.5182
2023-04-15T04:32:14.123Z,76.1384
2023-04-15T04:33:15.075Z,76.7927
2023-04-15T04:34:16.074Z,75.8630
2023-04-15T04:35:17.153Z,75.7168
2023-04-15T04:36:18.375Z,75.6875
2023-04-15T04:37:19.301Z,75.7355
2023-04-15T04:38:20.281Z,75.4728
2023-04-15T04:39:21.389Z,75.3853
2023-04-15T04:40:22.371Z,76.1637
2023-04-15T04:41:23.374Z,75.4432
2023-04-15T04:42:24.545Z,75.8627
2023-04-15T04:43:25.487Z,75.6139
2023-04-15T04:44:26.649Z,74.9677
2023-04-15T04:45:27.557Z,74.2929
2023-04-15T04:46:28.634Z,74.2526
2023-04-15T04:47:29.782Z,73.9449
2023-04-15T04:48:30.705Z,74.2331
2023-04-15T04:49:31.722Z,73.5649
2023-04-15T04:50:32.771Z,74.0003
2023-04-15T04:51:33.828Z,73.9600
2023-04-15T04:52:34.975Z,74.6433
2023-04-15T04:53:35.931Z,74.1297
2023-04-15T04:54:36.972Z,73.7075
2023-04-15T04:55:38.028Z,73.8699
2023-04-15T04:56:39.070Z,75.1625
2023-04-15T04:57:40.168Z,74.4559
2023-04-15T04:58:41.108Z,73.9284
2023-04-15T04:59:42.209Z,74.0268
2023-04-15T05:00:43.199Z,73.5839
2023-04-15T05:01:44.474Z,72.1105
2023-04-15T05:02:45.515Z,71.8495
2023-04-15T05:03:46.422Z,72.0602
2023-04-15T05:04:47.365Z,72.4403
2023-04-15T05:05:48.508Z,72.3644
2023-04-15T05:06:49.533Z,72.2789
2023-04-15T05:07:50.547Z,72.7825
2023-04-15T05:08:51.537Z,72.1258
2023-04-15T05:09:52.663Z,72.2272
2023-04-15T05:10:53.616Z,72.1278
2023-04-15T05:11:54.723Z,71.8564
2023-04-15T05:12:55.805Z,71.7101
2023-04-15T05:13:56.794Z,72.0214
2023-04-15T05:14:57.829Z,71.9988
2023-04-15T05:15:58.924Z,72.6327
2023-04-15T05:17:00.454Z,72.9405
2023-04-15T05:18:00.934Z,73.5664
2023-04-15T05:19:02.179Z,73.4929
2023-04-15T05:20:02.967Z,73.6410
2023-04-15T05:21:04.035Z,74.1183
2023-04-15T05:22:05.059Z,74.9234
2023-04-15T05:23:06.159Z,74.8746
2023-04-15T05:24:07.137Z,73.7355
2023-04-15T05:25:08.190Z,72.8983
2023-04-15T05:26:09.240Z,73.3196
2023-04-15T05:27:10.261Z,74.2013
2023-04-15T05:28:11.372Z,74.1203
2023-04-15T05:29:12.349Z,74.2497
2023-04-15T05:30:13.842Z,73.7373
2023-04-15T05:31:14.513Z,72.5964
2023-04-15T05:32:15.491Z,72.5585
2023-04-15T05:33:16.603Z,72.8886
2023-04-15T05:34:17.562Z,73.4074
2023-04-15T05:35:18.640Z,73.2088
2023-04-15T05:36:19.659Z,72.9601
2023-04-15T05:37:20.700Z,73.0409
2023-04-15T05:38:21.774Z,72.5826
2023-04-15T05:39:22.775Z,72.5596
2023-04-15T05:40:23.840Z,73.7734
2023-04-15T05:41:24.878Z,74.1769
2023-04-15T05:42:25.916Z,73.6042
2023-04-15T05:43:26.993Z,73.6694
2023-04-15T05:44:28.054Z,72.8026
2023-04-15T05:45:29.059Z,72.5556
2023-04-15T05:46:30.144Z,72.9438
2023-04-15T05:47:31.147Z,72.6815
2023-04-15T05:48:32.192Z,72.0664
2023-04-15T05:49:33.185Z,72.3727
2023-04-15T05:50:34.260Z,74.0021
2023-04-15T05:51:35.297Z,73.7001
2023-04-15T05:52:36.323Z,72.4895
2023-04-15T05:53:37.452Z,71.9269
2023-04-15T05:54:38.971Z,72.9972
2023-04-15T05:55:39.478Z,72.8560
2023-04-15T05:56:40.492Z,72.5917
2023-04-15T05:57:41.574Z,72.7787
2023-04-15T05:58:42.617Z,72.6064
2023-04-15T05:59:43.614Z,72.9324
2023-04-15T06:00:44.678Z,72.9407
2023-04-15T06:01:45.710Z,72.9090
2023-04-15T06:02:46.961Z,72.3865
2023-04-15T06:03:47.938Z,71.5885
2023-04-15T06:04:48.846Z,71.4524
2023-04-15T06:05:49.894Z,71.3055
2023-04-15T06:06:50.918Z,71.4688
2023-04-15T06:07:52.017Z,71.7151
2023-04-15T06:08:53.112Z,71.8745
2023-04-15T06:09:54.129Z,71.5913
2023-04-15T06:10:55.198Z,71.3344
2023-04-15T06:11:56.220Z,70.5803
2023-04-15T06:12:57.192Z,70.1531
2023-04-15T06:13:58.352Z,70.1369
2023-04-15T06:15:00.235Z,70.6638
2023-04-15T06:16:00.429Z,71.9439
2023-04-15T06:17:01.436Z,72.2427
2023-04-15T06:18:02.540Z,72.0383
2023-04-15T06:19:03.510Z,70.9145
2023-04-15T06:20:04.468Z,71.2848
2023-04-15T06:21:05.509Z,71.7548
2023-04-15T06:22:06.560Z,71.7478
2023-04-15T06:23:07.554Z,71.7355
2023-04-15T06:24:08.704Z,70.1249
2023-04-15T06:25:09.626Z,69.5033
2023-04-15T06:26:10.747Z,69.0999
2023-04-15T06:27:11.723Z,69.0970
2023-04-15T06:28:12.752Z,68.4367
2023-04-15T06:29:13.850Z,68.0879
2023-04-15T06:30:14.827Z,67.8929
2023-04-15T06:31:15.863Z,67.3871
2023-04-15T06:32:16.949Z,66.2527
2023-04-15T06:33:17.989Z,66.3475
2023-04-15T06:34:19.014Z,66.7545
2023-04-15T06:35:20.054Z,66.9090
2023-04-15T06:36:21.076Z,66.9920
2023-04-15T06:37:22.131Z,67.1159
2023-04-15T06:38:23.151Z,67.1785
2023-04-15T06:39:24.267Z,66.8356
2023-04-15T06:40:25.303Z,64.9859
2023-04-15T06:41:26.269Z,65.7100
2023-04-15T06:42:27.307Z,65.3316
2023-04-15T06:43:28.333Z,65.3850
2023-04-15T06:44:29.403Z,65.9157
2023-04-15T06:45:30.511Z,65.4016
2023-04-15T06:46:31.471Z,65.4576
2023-04-15T06:47:32.516Z,65.4911
2023-04-15T06:48:33.510Z,65.5883
2023-04-15T06:49:34.628Z,65.5464
2023-04-15T06:50:35.662Z,65.7696
2023-04-15T06:51:36.664Z,65.9566
2023-04-15T06:52:37.706Z,66.5915
2023-04-15T06:53:38.715Z,67.8679
2023-04-15T06:54:39.818Z,67.6827
2023-04-15T06:55:40.830Z,66.6660
2023-04-15T06:56:41.813Z,66.7737
2023-04-15T06:57:42.875Z,68.2027
2023-04-15T06:58:43.947Z,68.8271
2023-04-15T06:59:44.902Z,69.0875
2023-04-15T07:00:45.957Z,67.3257
2023-04-15T07:01:46.956Z,66.2678
2023-04-15T07:02:48.056Z,66.2468
2023-04-15T07:03:49.128Z,66.9787
2023-04-15T07:04:50.149Z,66.5710
2023-04-15T07:05:51.135Z,66.1119
2023-04-15T07:06:52.223Z,65.4705
2023-04-15T07:07:53.253Z,64.8659
2023-04-15T07:08:54.288Z,65.2503
2023-04-15T07:09:55.343Z,66.3654
2023-04-15T07:10:56.359Z,66.5978
2023-04-15T07:11:57.397Z,66.9006
2023-04-15T07:12:58.401Z,66.2684
2023-04-15T07:13:59.475Z,66.0226
2023-04-15T07:15:00.516Z,65.7863
2023-04-15T07:16:01.650Z,65.1540
2023-04-15T07:17:02.608Z,65.1101
2023-04-15T07:18:03.621Z,66.7797
2023-04-15T07:19:04.817Z,66.2347
2023-04-15T07:20:05.684Z,66.2290
2023-04-15T07:21:06.710Z,67.3558
2023-04-15T07:22:07.777Z,67.2784
2023-04-15T07:23:08.982Z,65.8406
2023-04-15T07:24:09.799Z,67.0082
2023-04-15T07:25:11.183Z,66.7792
2023-04-15T07:26:11.933Z,68.0503
2023-04-15T07:27:12.944Z,69.5743
2023-04-15T07:28:13.973Z,68.8264
2023-04-15T07:29:15.020Z,67.7330
2023-04-15T07:30:16.062Z,69.0386
2023-04-15T07:31:17.184Z,69.1120
2023-04-15T07:32:18.128Z,69.3192
2023-04-15T07:33:19.171Z,69.4982
2023-04-15T07:34:20.399Z,69.4399
2023-04-15T07:35:21.233Z,69.6664
2023-04-15T07:36:22.323Z,68.7336
2023-04-15T07:37:23.332Z,69.0068
2023-04-15T07:38:24.375Z,69.0251
2023-04-15T07:39:25.411Z,69.8366
2023-04-15T07:40:26.493Z,70.8631
2023-04-15T07:41:27.572Z,71.9281
2023-04-15T07:42:28.537Z,71.8874
2023-04-15T07:43:29.595Z,71.5350
2023-04-15T07:44:30.619Z,70.2701
2023-04-15T07:45:31.680Z,69.1670
2023-04-15T07:46:32.774Z,69.0605
2023-04-15T07:47:33.787Z,69.8752
2023-04-15T07:48:35.610Z,70.3672
2023-04-15T07:49:35.916Z,71.2783
2023-04-15T07:50:36.991Z,70.1402
2023-04-15T07:51:38.069Z,69.5063
2023-04-15T07:52:39.057Z,70.3819
2023-04-15T07:53:40.118Z,71.1426
2023-04-15T07:54:41.138Z,71.2423
2023-04-15T07:55:42.184Z,70.1166
2023-04-15T07:56:43.280Z,70.7438
2023-04-15T07:57:44.214Z,70.8925
2023-04-15T07:58:45.260Z,70.6085
2023-04-15T07:59:46.299Z,70.4617
2023-04-15T08:00:47.392Z,70.6906
2023-04-15T08:01:48.477Z,71.2610
2023-04-15T08:02:49.553Z,72.5442
2023-04-15T08:03:50.671Z,71.8478
2023-04-15T08:04:51.704Z,71.5700
2023-04-15T08:05:52.619Z,71.9356
2023-04-15T08:06:53.636Z,71.8766
2023-04-15T08:07:54.641Z,72.9391
2023-04-15T08:08:55.747Z,72.1087
2023-04-15T08:09:56.680Z,72.7983
2023-04-15T08:10:57.766Z,73.3122
2023-04-15T08:11:58.837Z,73.3254
2023-04-15T08:12:59.899Z,72.7591
2023-04-15T08:14:00.835Z,72.5839
2023-04-15T08:15:01.924Z,72.8597
2023-04-15T08:16:03.005Z,72.8803
2023-04-15T08:17:04.038Z,71.6242
2023-04-15T08:18:05.020Z,70.2089
2023-04-15T08:19:06.046Z,70.9205
2023-04-15T08:20:07.082Z,72.4284
2023-04-15T08:21:08.159Z,71.6574
2023-04-15T08:22:15.371Z,70.3209
2023-04-15T08:23:10.166Z,69.4748
2023-04-15T08:24:11.261Z,69.9046
2023-04-15T08:25:12.246Z,69.2303
2023-04-15T08:26:13.388Z,68.8958
2023-04-15T08:27:14.433Z,68.9784
2023-04-15T08:28:15.410Z,69.0278
2023-04-15T08:29:16.437Z,68.5472
2023-04-15T08:30:17.479Z,68.6283
2023-04-15T08:31:18.557Z,69.7590
2023-04-15T08:32:19.636Z,68.8198
2023-04-15T08:33:20.593Z,68.0221
2023-04-15T08:34:21.626Z,69.9673
2023-04-15T08:35:22.806Z,69.5219
2023-04-15T08:36:23.736Z,67.9735
2023-04-15T08:37:24.668Z,67.3306
2023-04-15T08:38:25.710Z,68.4326
2023-04-15T08:39:26.732Z,68.1882
2023-04-15T08:40:27.795Z,67.4775
2023-04-15T08:41:28.814Z,67.2473
2023-04-15T08:42:29.915Z,67.5505
2023-04-15T08:43:30.892Z,66.7220
2023-04-15T08:44:31.972Z,67.1092
2023-04-15T08:45:32.998Z,66.0131
2023-04-15T08:46:34.032Z,64.9444
2023-04-15T08:47:35.073Z,66.5253
2023-04-15T08:48:36.057Z,68.0039
2023-04-15T08:49:37.100Z,68.6627
2023-04-15T08:50:38.142Z,68.5699
2023-04-15T08:51:39.187Z,69.3707
2023-04-15T08:52:40.261Z,69.3262
2023-04-15T08:53:41.266Z,69.0458
2023-04-15T08:54:42.308Z,66.6640
2023-04-15T08:55:43.309Z,65.8306
2023-04-15T08:56:44.414Z,65.8242
2023-04-15T08:57:45.450Z,65.8658
2023-04-15T08:58:46.465Z,65.3544
2023-04-15T08:59:47.528Z,65.8821
2023-04-15T09:00:48.650Z,65.9639
2023-04-15T09:01:49.628Z,67.0679
2023-04-15T09:02:50.730Z,68.3460
2023-04-15T09:03:51.777Z,68.7305
2023-04-15T09:04:52.921Z,70.9797
2023-04-15T09:05:53.762Z,72.2302
2023-04-15T09:06:54.782Z,70.7365
2023-04-15T09:07:55.935Z,69.5744
2023-04-15T09:08:56.861Z,69.6530
2023-04-15T09:09:57.923Z,69.8220
2023-04-15T09:10:58.990Z,70.8381
2023-04-15T09:11:59.998Z,71.6856
2023-04-15T09:13:01.089Z,71.2938
2023-04-15T09:14:02.080Z,72.5566
2023-04-15T09:15:03.141Z,72.2802
2023-04-15T09:16:04.232Z,74.3652
2023-04-15T09:17:05.295Z,74.0125
2023-04-15T09:18:06.264Z,73.3359
2023-04-15T09:19:07.265Z,72.3773
2023-04-15T09:20:08.300Z,70.4112
2023-04-15T09:21:09.638Z,72.1761
2023-04-15T09:22:10.357Z,73.0478
2023-04-15T09:23:11.484Z,70.5506
2023-04-15T09:24:12.433Z,70.4892
2023-04-15T09:25:13.514Z,69.8594
2023-04-15T09:26:14.510Z,70.9823
2023-04-15T09:27:15.544Z,71.9326
2023-04-15T09:28:16.619Z,70.0762
2023-04-15T09:29:17.622Z,71.1547
2023-04-15T09:30:18.685Z,71.2121
2023-04-15T09:31:19.747Z,71.3194
2023-04-15T09:32:20.712Z,69.0548
2023-04-15T09:33:21.906Z,68.5574
2023-04-15T09:34:22.956Z,69.4310
2023-04-15T09:35:23.929Z,69.5303
2023-04-15T09:36:24.986Z,68.7394
2023-04-15T09:37:32.395Z,66.7327
2023-04-15T09:38:27.117Z,65.4688
2023-04-15T09:39:28.113Z,65.2964
2023-04-15T09:40:29.152Z,64.9102
2023-04-15T09:41:30.199Z,65.6309
2023-04-15T09:42:31.238Z,66.2603
2023-04-15T09:43:32.292Z,66.9230
2023-04-15T09:44:33.314Z,67.4891
2023-04-15T09:45:34.337Z,66.5933
2023-04-15T09:46:35.433Z,66.7262
2023-04-15T09:47:36.492Z,66.0950
2023-04-15T09:48:37.602Z,67.7052
2023-04-15T09:49:38.578Z,67.0855
2023-04-15T09:50:39.562Z,67.6092
2023-04-15T09:51:41.340Z,65.2939
2023-04-15T09:52:41.634Z,65.2678
2023-04-15T09:53:42.710Z,66.0018
2023-04-15T09:54:43.695Z,66.8099
2023-04-15T09:55:44.745Z,66.9829
2023-04-15T09:56:45.806Z,66.6908
2023-04-15T09:57:46.828Z,65.8840
2023-04-15T09:58:47.912Z,65.3242
2023-04-15T09:59:48.873Z,66.0333
2023-04-15T10:00:49.973Z,64.9935
2023-04-15T10:01:51.075Z,64.9493
2023-04-15T10:02:52.056Z,62.6271
2023-04-15T10:03:53.115Z,62.6001
2023-04-15T10:04:54.110Z,62.6179
2023-04-15T10:05:55.163Z,63.4107
2023-04-15T10:06:56.158Z,63.8657
2023-04-15T10:07:57.247Z,63.9527
2023-04-15T10:08:58.253Z,65.4305
2023-04-15T10:09:59.271Z,64.9729
2023-04-15T10:11:00.277Z,65.3934
2023-04-15T10:12:01.324Z,67.5579
2023-04-15T10:13:02.356Z,68.4777
2023-04-15T10:14:03.745Z,67.5829
2023-04-15T10:15:04.423Z,66.2091
2023-04-15T10:16:05.483Z,66.0892
2023-04-15T10:17:06.478Z,66.7549
2023-04-15T10:18:07.766Z,66.7018
2023-04-15T10:19:08.523Z,67.0505
2023-04-15T10:20:09.516Z,67.5524
2023-04-15T10:21:10.543Z,67.6789
2023-04-15T10:22:11.616Z,67.4665
2023-04-15T10:23:13.462Z,67.9110
2023-04-15T10:24:13.696Z,68.2069
2023-04-15T10:25:14.702Z,69.2132
2023-04-15T10:26:15.734Z,69.5999
2023-04-15T10:27:16.788Z,69.4763
2023-04-15T10:28:17.810Z,69.4712
2023-04-15T10:29:18.882Z,69.7884
2023-04-15T10:30:19.899Z,68.7734
2023-04-15T10:31:20.971Z,68.2962
2023-04-15T10:32:21.991Z,69.2951
2023-04-15T10:33:23.006Z,68.1113
2023-04-15T10:34:24.061Z,69.1693
2023-04-15T10:35:25.095Z,70.1994
2023-04-15T10:36:26.108Z,69.7804
2023-04-15T10:37:27.188Z,69.3787
2023-04-15T10:38:28.206Z,69.0606
2023-04-15T10:39:29.279Z,68.2106
2023-04-15T10:40:30.302Z,68.5467
2023-04-15T10:41:31.387Z,67.5957
2023-04-15T10:42:32.385Z,68.9467
2023-04-15T10:43:33.379Z,68.8791
2023-04-15T10:44:34.471Z,68.7555
2023-04-15T10:45:35.505Z,67.9235
2023-04-15T10:46:36.564Z,67.6371
2023-04-15T10:47:37.597Z,69.0614
2023-04-15T10:48:38.610Z,69.7570
2023-04-15T10:49:39.626Z,70.4200
2023-04-15T10:50:40.732Z,71.0719
2023-04-15T10:51:41.756Z,70.2726
2023-04-15T10:52:42.738Z,71.1972
2023-04-15T10:53:43.801Z,71.3790
2023-04-15T10:54:44.806Z,72.7141
2023-04-15T10:55:45.867Z,72.9429
2023-04-15T10:56:46.899Z,71.8309
2023-04-15T10:57:47.934Z,70.9050
2023-04-15T10:58:48.998Z,70.0407
2023-04-15T10:59:50.029Z,70.0051
2023-04-15T11:00:51.068Z,70.0302
2023-04-15T11:01:52.194Z,70.2081
2023-04-15T11:02:53.161Z,70.1170
2023-04-15T11:03:54.325Z,70.4421
2023-04-15T11:04:55.560Z,71.7691
2023-04-15T11:05:56.316Z,71.2637
2023-04-15T11:06:57.303Z,71.5992
2023-04-15T11:07:58.364Z,71.2001
2023-04-15T11:08:59.463Z,71.5089
2023-04-15T11:10:00.434Z,70.4738
2023-04-15T11:11:01.512Z,69.3326
2023-04-15T11:12:02.503Z,67.3487
2023-04-15T11:13:03.552Z,68.9805
2023-04-15T11:14:04.733Z,68.6017
2023-04-15T11:15:05.605Z,71.3418
2023-04-15T11:16:06.748Z,71.1045
2023-04-15T11:17:07.760Z,70.4601
2023-04-15T11:18:08.907Z,68.9343
2023-04-15T11:19:09.883Z,67.3020
2023-04-15T11:20:10.913Z,67.9424
2023-04-15T11:21:12.035Z,68.0983
2023-04-15T11:22:12.949Z,69.9524
2023-04-15T11:23:15.015Z,71.5204
2023-04-15T11:24:15.104Z,70.3847
2023-04-15T11:25:16.075Z,70.2203
2023-04-15T11:26:17.187Z,71.0724
2023-04-15T11:27:18.183Z,70.6037
2023-04-15T11:28:19.181Z,70.7861
2023-04-15T11:29:20.239Z,71.7948
2023-04-15T11:30:21.302Z,72.9235
2023-04-15T11:31:22.461Z,73.0245
2023-04-15T11:32:23.415Z,72.3346
2023-04-15T11:33:24.447Z,72.5443
2023-04-15T11:34:25.449Z,71.4986
2023-04-15T11:35:26.533Z,72.8158
2023-04-15T11:36:27.614Z,73.1341
2023-04-15T11:37:28.592Z,73.3256
2023-04-15T11:38:29.640Z,73.9451
2023-04-15T11:39:30.686Z,73.9106
2023-04-15T11:40:31.761Z,72.9555
2023-04-15T11:41:32.830Z,73.1337
2023-04-15T11:42:48.571Z,71.6280
2023-04-15T11:43:34.853Z,72.9931
2023-04-15T11:44:35.887Z,72.8541
2023-04-15T11:45:37.039Z,72.4326
2023-04-15T11:46:37.882Z,71.7467
2023-04-15T11:47:38.926Z,73.1959
2023-04-15T11:48:39.937Z,73.1128
2023-04-15T11:49:40.982Z,72.4246
2023-04-15T11:50:42.022Z,72.1301
2023-04-15T11:51:43.103Z,73.6875
2023-04-15T11:52:44.102Z,73.3487
2023-04-15T11:53:45.123Z,73.6770
2023-04-15T11:54:46.193Z,72.1927
2023-04-15T11:55:47.220Z,72.5190
2023-04-15T11:56:48.282Z,73.2063
2023-04-15T11:57:49.309Z,72.6173
2023-04-15T11:58:50.329Z,72.7697
2023-04-15T11:59:51.373Z,72.7041
2023-04-15T12:00:52.424Z,72.7090
2023-04-15T12:01:53.483Z,72.1134
2023-04-15T12:02:54.756Z,71.1085
2023-04-15T12:03:55.577Z,70.9516
2023-04-15T12:04:56.624Z,70.7305
2023-04-15T12:05:57.573Z,71.7489
2023-04-15T12:06:58.617Z,71.6146
2023-04-15T12:07:59.650Z,70.9154
2023-04-15T12:09:00.710Z,68.5379
2023-04-15T12:10:01.700Z,69.4182
2023-04-15T12:11:02.746Z,70.3301
2023-04-15T12:12:03.877Z,70.5813
2023-04-15T12:13:04.846Z,69.5302
2023-04-15T12:14:06.163Z,69.0684
2023-04-15T12:15:06.905Z,69.3712
2023-04-15T12:16:07.974Z,70.4666
2023-04-15T12:17:09.034Z,70.0139
2023-04-15T12:18:10.070Z,69.6032